createdAt,value
2022-08-26T00:01:30.073Z,72.20
2022-08-26T00:04:15.737Z,72.07
2022-08-26T00:07:01.292Z,72.19
2022-08-26T00:09:47.585Z,71.95
2022-08-26T00:12:37.278Z,71.99
2022-08-26T00:15:26.188Z,72.34
2022-08-26T00:18:21.811Z,72.13
2022-08-26T00:21:09.457Z,72.03
2022-08-26T00:23:54.995Z,72.19
2022-08-26T00:26:41.341Z,72.18
2022-08-26T00:29:27.187Z,72.34
2022-08-26T00:32:12.636Z,72.31
2022-08-26T00:34:59.892Z,72.34
2022-08-26T00:37:45.818Z,72.05
2022-08-26T00:40:38.828Z,72.33
2022-08-26T00:43:25.398Z,72.13
2022-08-26T00:46:16.647Z,72.22
2022-08-26T00:49:25.882Z,72.23
2022-08-26T00:52:15.783Z,72.01
2022-08-26T00:55:20.565Z,72.26
2022-08-26T00:58:08.651Z,72.48
2022-08-26T01:00:54.703Z,72.04
2022-08-26T01:03:42.299Z,72.15
2022-08-26T01:06:28.583Z,72.25
2022-08-26T01:09:14.917Z,71.87
2022-08-26T01:12:03.045Z,72.15
2022-08-26T01:14:49.005Z,71.96
2022-08-26T01:17:34.461Z,71.88
2022-08-26T01:20:29.702Z,71.62
2022-08-26T01:23:15.928Z,71.74
2022-08-26T01:26:07.588Z,71.81
2022-08-26T01:29:05.989Z,71.86
2022-08-26T01:31:57.887Z,71.62
2022-08-26T01:34:43.463Z,71.56
2022-08-26T01:37:34.862Z,71.46
2022-08-26T01:40:25.694Z,71.75
2022-08-26T01:43:17.713Z,71.37
2022-08-26T01:46:03.859Z,71.51
2022-08-26T01:48:52.352Z,71.27
2022-08-26T01:51:41.048Z,71.45
2022-08-26T01:54:26.513Z,71.25
2022-08-26T01:57:15.503Z,71.56
2022-08-26T02:00:02.399Z,71.25
2022-08-26T02:03:17.214Z,71.19
2022-08-26T02:06:09.346Z,71.34
2022-08-26T02:08:57.795Z,71.45
2022-08-26T02:11:44.658Z,71.37
2022-08-26T02:14:34.770Z,71.51
2022-08-26T02:17:24.529Z,71.39
2022-08-26T02:20:13.312Z,71.57
2022-08-26T02:23:00.223Z,71.63
2022-08-26T02:26:09.922Z,71.55
2022-08-26T02:29:01.861Z,71.60
2022-08-26T02:31:48.550Z,71.56
2022-08-26T02:34:34.916Z,71.69
2022-08-26T02:37:20.191Z,71.35
2022-08-26T02:40:09.920Z,71.56
2022-08-26T02:42:57.062Z,71.22
2022-08-26T02:45:43.136Z,71.35
2022-08-26T02:48:29.360Z,71.15
2022-08-26T02:51:14.936Z,71.17
2022-08-26T02:54:00.231Z,70.81
2022-08-26T02:56:46.622Z,70.91
2022-08-26T02:59:32.275Z,71.00
2022-08-26T03:02:17.905Z,71.09
2022-08-26T03:05:04.171Z,71.10
2022-08-26T03:07:49.617Z,70.96
2022-08-26T03:10:34.784Z,71.19
2022-08-26T03:13:20.039Z,71.18
2022-08-26T03:16:06.474Z,71.19
2022-08-26T03:18:52.329Z,71.13
2022-08-26T03:21:39.239Z,71.12
2022-08-26T03:24:25.943Z,70.86
2022-08-26T03:27:11.528Z,71.05
2022-08-26T03:30:15.125Z,71.08
2022-08-26T03:33:01.383Z,71.19
2022-08-26T03:35:50.618Z,71.05
2022-08-26T03:38:36.240Z,71.15
2022-08-26T03:41:21.919Z,71.20
2022-08-26T03:44:11.279Z,71.01
2022-08-26T03:46:56.718Z,71.20
2022-08-26T03:49:41.922Z,71.05
2022-08-26T03:52:27.997Z,70.84
2022-08-26T03:55:14.393Z,70.86
2022-08-26T03:58:00.767Z,71.09
2022-08-26T04:00:46.381Z,70.81
2022-08-26T04:03:50.344Z,71.54
2022-08-26T04:06:45.179Z,71.33
2022-08-26T04:09:31.045Z,71.08
2022-08-26T04:12:21.012Z,71.16
2022-08-26T04:15:14.010Z,71.33
2022-08-26T04:17:59.560Z,70.88
2022-08-26T04:20:44.799Z,70.78
2022-08-26T04:23:30.279Z,70.41
2022-08-26T04:26:17.143Z,70.45
2022-08-26T04:29:05.326Z,70.42
2022-08-26T04:31:55.609Z,70.24
2022-08-26T04:34:42.320Z,69.87
2022-08-26T04:37:27.765Z,69.57
2022-08-26T04:40:13.142Z,69.92
2022-08-26T04:42:58.625Z,69.28
2022-08-26T04:45:44.335Z,69.02
2022-08-26T04:48:31.122Z,68.92
2022-08-26T04:51:16.483Z,68.42
2022-08-26T04:54:02.295Z,68.45
2022-08-26T04:56:49.538Z,68.53
2022-08-26T04:59:39.132Z,68.44
2022-08-26T05:02:24.860Z,68.87
2022-08-26T05:05:10.764Z,69.13
2022-08-26T05:08:00.501Z,69.11
2022-08-26T05:10:49.305Z,68.82
2022-08-26T05:13:35.788Z,68.11
2022-08-26T05:16:22.459Z,68.34
2022-08-26T05:19:08.608Z,68.46
2022-08-26T05:21:54.229Z,68.27
2022-08-26T05:24:41.348Z,68.14
2022-08-26T05:27:26.519Z,68.83
2022-08-26T05:30:12.219Z,68.66
2022-08-26T05:32:57.915Z,68.88
2022-08-26T05:35:45.148Z,68.41
2022-08-26T05:38:31.527Z,69.63
2022-08-26T05:41:21.675Z,68.58
2022-08-26T05:44:10.475Z,69.33
2022-08-26T05:46:55.893Z,69.83
2022-08-26T05:49:51.331Z,68.30
2022-08-26T05:52:37.800Z,68.03
2022-08-26T05:55:23.415Z,68.06
2022-08-26T05:58:08.596Z,68.07
2022-08-26T06:00:58.455Z,67.86
2022-08-26T06:03:47.610Z,68.78
2022-08-26T06:06:36.484Z,68.55
2022-08-26T06:09:21.708Z,68.38
2022-08-26T06:12:07.272Z,68.88
2022-08-26T06:14:52.730Z,69.40
2022-08-26T06:17:37.992Z,69.51
2022-08-26T06:20:23.497Z,69.93
2022-08-26T06:23:28.168Z,70.03
2022-08-26T06:26:16.165Z,69.70
2022-08-26T06:29:02.485Z,69.66
2022-08-26T06:31:50.148Z,69.49
2022-08-26T06:34:37.109Z,69.87
2022-08-26T06:37:22.593Z,70.13
2022-08-26T06:40:09.931Z,70.14
2022-08-26T06:42:57.049Z,70.23
2022-08-26T06:45:44.795Z,70.47
2022-08-26T06:48:30.048Z,70.87
2022-08-26T06:51:19.749Z,71.18
2022-08-26T06:54:10.142Z,71.39
2022-08-26T06:56:57.660Z,71.62
2022-08-26T06:59:43.154Z,71.72
2022-08-26T07:02:28.545Z,71.86
2022-08-26T07:05:14.825Z,71.85
2022-08-26T07:08:00.229Z,72.21
2022-08-26T07:10:45.368Z,72.44
2022-08-26T07:13:31.046Z,72.65
2022-08-26T07:16:18.106Z,72.64
2022-08-26T07:19:10.862Z,73.11
2022-08-26T07:21:56.763Z,73.40
2022-08-26T07:24:42.699Z,73.45
2022-08-26T07:27:29.382Z,73.11
2022-08-26T07:30:15.018Z,72.80
2022-08-26T07:33:00.698Z,72.95
2022-08-26T07:35:45.947Z,73.17
2022-08-26T07:38:32.395Z,73.06
2022-08-26T07:41:22.837Z,73.02
2022-08-26T07:44:08.912Z,73.29
2022-08-26T07:46:55.585Z,73.58
2022-08-26T07:49:42.792Z,73.61
2022-08-26T07:52:30.449Z,73.78
2022-08-26T07:55:16.260Z,74.02
2022-08-26T07:58:02.616Z,73.61
2022-08-26T08:00:47.846Z,73.33
2022-08-26T08:03:33.752Z,73.37
2022-08-26T08:06:27.294Z,73.44
2022-08-26T08:09:14.866Z,73.47
2022-08-26T08:12:01.769Z,73.37
2022-08-26T08:14:48.326Z,72.98
2022-08-26T08:17:34.547Z,73.21
2022-08-26T08:20:21.280Z,73.41
2022-08-26T08:23:08.201Z,73.40
2022-08-26T08:26:08.288Z,73.50
2022-08-26T08:28:55.872Z,73.38
2022-08-26T08:31:58.010Z,73.74
2022-08-26T08:37:35.157Z,73.73
2022-08-26T08:40:21.468Z,73.74
2022-08-26T08:43:10.926Z,73.71
2022-08-26T08:46:04.371Z,73.77
2022-08-26T08:48:56.848Z,73.72
2022-08-26T08:51:48.392Z,73.64
2022-08-26T08:54:33.973Z,74.04
2022-08-26T08:57:31.581Z,73.66
2022-08-26T09:00:19.378Z,74.00
2022-08-26T09:03:26.864Z,73.84
2022-08-26T09:06:17.032Z,73.86
2022-08-26T09:09:04.857Z,74.07
2022-08-26T09:11:51.958Z,73.98
2022-08-26T09:14:37.403Z,74.07
2022-08-26T09:17:22.507Z,73.92
2022-08-26T09:20:37.459Z,74.16
2022-08-26T09:23:23.083Z,73.79
2022-08-26T09:26:19.438Z,74.22
2022-08-26T09:29:18.373Z,73.87
2022-08-26T09:32:24.940Z,73.92
2022-08-26T09:35:26.959Z,74.02
2022-08-26T09:38:27.907Z,73.98
2022-08-26T09:41:27.539Z,74.03
2022-08-26T09:44:18.929Z,74.22
2022-08-26T09:47:06.787Z,74.14
2022-08-26T09:50:09.477Z,73.97
2022-08-26T09:53:09.978Z,73.96
2022-08-26T09:56:27.547Z,74.04
2022-08-26T09:59:13.225Z,74.07
2022-08-26T10:02:17.297Z,74.10
2022-08-26T10:05:09.546Z,74.11
2022-08-26T10:07:55.512Z,74.23
2022-08-26T10:10:45.363Z,74.00
2022-08-26T10:13:45.139Z,74.56
2022-08-26T10:16:41.541Z,74.88
2022-08-26T10:19:56.275Z,75.00
2022-08-26T10:22:54.497Z,76.02
2022-08-26T10:25:53.441Z,76.25
2022-08-26T10:28:46.391Z,76.25
2022-08-26T10:31:51.311Z,75.76
2022-08-26T10:34:37.008Z,75.85
2022-08-26T10:37:26.157Z,76.02
2022-08-26T10:40:18.489Z,76.23
2022-08-26T10:43:11.060Z,76.52
2022-08-26T10:46:06.896Z,76.67
2022-08-26T10:49:14.947Z,77.11
2022-08-26T10:52:22.089Z,76.40
2022-08-26T10:55:19.934Z,76.85
2022-08-26T10:58:28.090Z,75.61
2022-08-26T11:01:43.030Z,75.87
2022-08-26T11:04:47.483Z,75.17
2022-08-26T11:07:46.267Z,74.84
2022-08-26T11:10:59.121Z,75.32
2022-08-26T11:13:56.424Z,75.37
2022-08-26T11:16:47.113Z,75.45
2022-08-26T11:19:59.392Z,75.14
2022-08-26T11:22:47.805Z,75.61
2022-08-26T11:25:33.735Z,75.71
2022-08-26T11:28:45.223Z,75.32
2022-08-26T11:31:30.788Z,75.91
2022-08-26T11:34:17.298Z,75.76
2022-08-26T11:37:12.427Z,75.30
2022-08-26T11:39:58.084Z,75.18
2022-08-26T11:42:50.568Z,75.98
2022-08-26T11:46:01.803Z,75.69
2022-08-26T11:48:47.869Z,75.91
2022-08-26T11:51:40.430Z,75.70
2022-08-26T11:54:30.770Z,75.78
2022-08-26T11:57:21.293Z,75.48
2022-08-26T12:00:13.527Z,75.14
2022-08-26T12:03:02.535Z,75.54
2022-08-26T12:05:50.371Z,75.59
2022-08-26T12:08:42.900Z,75.08
2022-08-26T12:11:35.101Z,76.56
2022-08-26T12:14:25.010Z,77.05
2022-08-26T12:17:20.022Z,75.89
2022-08-26T12:20:46.029Z,75.64
2022-08-26T12:23:41.466Z,74.13
2022-08-26T12:26:34.913Z,73.99
2022-08-26T12:29:27.882Z,74.71
2022-08-26T12:32:18.354Z,74.23
2022-08-26T12:37:55.986Z,73.93
2022-08-26T12:40:46.527Z,74.07
2022-08-26T12:43:44.211Z,73.73
2022-08-26T12:46:29.767Z,74.03
2022-08-26T12:49:18.794Z,73.83
2022-08-26T12:52:07.962Z,74.03
2022-08-26T12:54:59.619Z,74.50
2022-08-26T12:57:45.731Z,75.24
2022-08-26T13:00:42.117Z,75.41
2022-08-26T13:03:45.999Z,75.47
2022-08-26T13:06:31.561Z,75.03
2022-08-26T13:09:17.175Z,74.75
2022-08-26T13:12:02.540Z,75.03
2022-08-26T13:14:47.773Z,74.92
2022-08-26T13:17:35.948Z,74.72
2022-08-26T13:20:21.449Z,74.34
2022-08-26T13:23:08.176Z,74.30
2022-08-26T13:25:53.753Z,74.53
2022-08-26T13:28:39.248Z,74.22
2022-08-26T13:31:27.367Z,74.00
2022-08-26T13:34:19.274Z,73.84
2022-08-26T13:37:05.259Z,73.83
2022-08-26T13:39:51.168Z,73.41
2022-08-26T13:42:36.833Z,73.27
2022-08-26T13:45:34.676Z,73.41
2022-08-26T13:48:22.875Z,72.49
2022-08-26T13:51:08.988Z,72.43
2022-08-26T13:53:55.209Z,72.10
2022-08-26T13:56:40.938Z,72.28
2022-08-26T13:59:26.494Z,71.87
2022-08-26T14:02:11.804Z,72.29
2022-08-26T14:04:57.399Z,72.19
2022-08-26T14:07:42.956Z,72.02
2022-08-26T14:10:28.560Z,71.86
2022-08-26T14:13:15.240Z,72.27
2022-08-26T14:16:02.503Z,72.14
2022-08-26T14:18:50.930Z,71.42
2022-08-26T14:21:39.426Z,71.92
2022-08-26T14:24:24.959Z,71.51
2022-08-26T14:27:12.539Z,71.36
2022-08-26T14:29:59.666Z,71.78
2022-08-26T14:32:52.101Z,71.49
2022-08-26T14:35:37.711Z,71.71
2022-08-26T14:38:23.093Z,71.60
2022-08-26T14:41:08.425Z,71.51
2022-08-26T14:44:06.856Z,71.39
2022-08-26T14:46:53.533Z,71.63
2022-08-26T14:49:38.850Z,71.56
2022-08-26T14:52:24.342Z,72.46
2022-08-26T14:55:09.926Z,71.86
2022-08-26T14:57:55.426Z,72.25
2022-08-26T15:00:40.807Z,72.85
2022-08-26T15:03:27.913Z,71.75
2022-08-26T15:06:15.131Z,71.65
2022-08-26T15:09:00.784Z,71.68
2022-08-26T15:11:47.584Z,71.83
2022-08-26T15:14:33.585Z,72.42
2022-08-26T15:17:18.825Z,71.26
2022-08-26T15:20:07.931Z,71.19
2022-08-26T15:22:53.556Z,71.32
2022-08-26T15:25:38.788Z,71.34
2022-08-26T15:28:24.020Z,71.34
2022-08-26T15:31:09.736Z,71.24
2022-08-26T15:33:56.462Z,71.83
2022-08-26T15:36:44.724Z,71.17
2022-08-26T15:39:30.427Z,71.47
2022-08-26T15:42:15.956Z,71.07
2022-08-26T15:45:01.612Z,71.63
2022-08-26T15:48:01.320Z,71.48
2022-08-26T15:50:54.777Z,71.22
2022-08-26T15:53:40.214Z,71.15
2022-08-26T15:56:27.676Z,71.53
2022-08-26T15:59:13.936Z,71.71
2022-08-26T16:02:00.548Z,71.34
2022-08-26T16:04:46.018Z,71.80
2022-08-26T16:07:32.249Z,71.77
2022-08-26T16:10:18.654Z,71.74
2022-08-26T16:13:05.013Z,71.47
2022-08-26T16:15:50.515Z,71.78
2022-08-26T16:18:35.908Z,71.74
2022-08-26T16:21:24.676Z,71.38
2022-08-26T16:24:10.633Z,71.26
2022-08-26T16:26:56.249Z,71.74
2022-08-26T16:29:41.428Z,71.16
2022-08-26T16:32:30.725Z,71.41
2022-08-26T16:35:16.815Z,71.25
2022-08-26T16:38:02.635Z,71.20
2022-08-26T16:40:48.377Z,71.84
2022-08-26T16:43:34.472Z,71.75
2022-08-26T16:46:22.299Z,71.88
2022-08-26T16:49:07.861Z,71.66
2022-08-26T16:51:53.361Z,71.56
2022-08-26T16:54:39.867Z,71.85
2022-08-26T16:57:25.524Z,71.95
2022-08-26T17:00:37.554Z,72.03
2022-08-26T17:03:23.401Z,71.74
2022-08-26T17:06:09.541Z,71.94
2022-08-26T17:08:54.962Z,71.89
2022-08-26T17:11:42.278Z,71.81
2022-08-26T17:14:27.970Z,71.70
2022-08-26T17:17:13.977Z,71.20
2022-08-26T17:20:07.350Z,71.37
2022-08-26T17:22:56.017Z,71.36
2022-08-26T17:25:41.718Z,71.54
2022-08-26T17:28:27.637Z,71.72
2022-08-26T17:31:14.161Z,71.24
2022-08-26T17:34:01.007Z,71.59
2022-08-26T17:36:46.349Z,71.74
2022-08-26T17:39:33.016Z,71.44
2022-08-26T17:42:18.861Z,71.38
2022-08-26T17:45:06.238Z,71.20
2022-08-26T17:47:53.627Z,71.23
2022-08-26T17:50:41.328Z,71.46
2022-08-26T17:53:29.783Z,71.44
2022-08-26T17:56:18.646Z,71.56
2022-08-26T17:59:04.281Z,72.02
2022-08-26T18:01:50.232Z,71.54
2022-08-26T18:04:36.234Z,71.36
2022-08-26T18:07:22.079Z,71.31
2022-08-26T18:10:12.951Z,71.33
2022-08-26T18:12:58.681Z,71.30
2022-08-26T18:15:47.354Z,71.42
2022-08-26T18:18:34.267Z,71.76
2022-08-26T18:21:23.104Z,71.84
2022-08-26T18:24:13.329Z,71.53
2022-08-26T18:26:59.907Z,71.57
2022-08-26T18:29:48.478Z,71.87
2022-08-26T18:32:36.139Z,71.73
2022-08-26T18:35:21.938Z,71.57
2022-08-26T18:38:11.100Z,71.65
2022-08-26T18:40:57.403Z,71.36
2022-08-26T18:43:43.328Z,71.69
2022-08-26T18:46:29.284Z,71.64
2022-08-26T18:49:17.507Z,71.85
2022-08-26T18:52:03.580Z,71.27
2022-08-26T18:54:50.086Z,71.67
2022-08-26T18:57:36.063Z,71.29
2022-08-26T19:00:21.462Z,71.23
2022-08-26T19:03:18.388Z,71.04
2022-08-26T19:06:05.196Z,70.62
2022-08-26T19:08:50.944Z,70.92
2022-08-26T19:11:42.216Z,70.76
2022-08-26T19:14:29.036Z,70.27
2022-08-26T19:17:15.438Z,70.11
2022-08-26T19:20:01.175Z,70.41
2022-08-26T19:22:46.704Z,70.89
2022-08-26T19:25:32.407Z,70.93
2022-08-26T19:28:19.581Z,71.27
2022-08-26T19:31:04.919Z,70.96
2022-08-26T19:33:50.615Z,71.15
2022-08-26T19:36:36.135Z,71.60
2022-08-26T19:39:21.893Z,71.34
2022-08-26T19:42:07.206Z,71.92
2022-08-26T19:45:07.483Z,71.98
2022-08-26T19:47:59.431Z,71.99
2022-08-26T19:50:46.252Z,71.92
2022-08-26T19:53:31.823Z,71.70
2022-08-26T19:56:17.818Z,72.11
2022-08-26T19:59:03.380Z,72.02
2022-08-26T20:02:00.836Z,71.58
2022-08-26T20:04:47.228Z,72.10
2022-08-26T20:07:33.093Z,71.97
2022-08-26T20:10:21.369Z,71.97
2022-08-26T20:13:06.753Z,72.06
2022-08-26T20:15:53.945Z,72.02
2022-08-26T20:18:59.336Z,72.44
2022-08-26T20:21:45.706Z,72.07
2022-08-26T20:24:32.694Z,72.02
2022-08-26T20:27:18.000Z,72.05
2022-08-26T20:30:04.895Z,72.51
2022-08-26T20:32:50.312Z,71.97
2022-08-26T20:35:35.852Z,72.56
2022-08-26T20:38:21.729Z,72.08
2022-08-26T20:41:07.421Z,72.05
2022-08-26T20:43:53.933Z,72.13
2022-08-26T20:46:39.943Z,72.16
2022-08-26T20:49:27.142Z,72.49
2022-08-26T20:52:13.744Z,72.52
2022-08-26T20:54:59.248Z,72.31
2022-08-26T20:57:44.566Z,72.57
2022-08-26T21:00:30.035Z,72.38
2022-08-26T21:03:15.583Z,72.33
2022-08-26T21:06:01.208Z,72.84
2022-08-26T21:08:47.467Z,72.80
2022-08-26T21:11:34.259Z,72.56
2022-08-26T21:14:20.679Z,72.73
2022-08-26T21:17:06.116Z,72.63
2022-08-26T21:19:51.289Z,72.68
2022-08-26T21:22:36.564Z,72.34
2022-08-26T21:25:21.781Z,72.57
2022-08-26T21:28:07.072Z,72.61
2022-08-26T21:30:52.332Z,72.83
2022-08-26T21:33:38.366Z,73.03
2022-08-26T21:36:24.033Z,72.74
2022-08-26T21:39:11.915Z,72.53
2022-08-26T21:41:58.035Z,72.70
2022-08-26T21:44:44.793Z,72.88
2022-08-26T21:47:34.823Z,72.78
2022-08-26T21:50:20.580Z,72.75
2022-08-26T21:53:06.597Z,72.90
2022-08-26T21:55:53.743Z,72.76
2022-08-26T21:58:40.294Z,73.06
2022-08-26T22:01:29.520Z,72.71
2022-08-26T22:04:15.453Z,72.71
2022-08-26T22:07:01.932Z,73.22
2022-08-26T22:09:47.658Z,73.19
2022-08-26T22:12:32.952Z,72.93
2022-08-26T22:15:23.016Z,73.22
2022-08-26T22:18:09.630Z,72.61
2022-08-26T22:20:56.871Z,73.10
2022-08-26T22:23:43.449Z,73.03
2022-08-26T22:26:31.326Z,72.87
2022-08-26T22:29:18.709Z,73.21
2022-08-26T22:32:04.847Z,72.83
2022-08-26T22:34:50.406Z,72.72
2022-08-26T22:37:35.782Z,72.74
2022-08-26T22:40:21.117Z,72.68
2022-08-26T22:43:07.752Z,72.56
2022-08-26T22:45:54.620Z,72.86
2022-08-26T22:48:40.120Z,73.02
2022-08-26T22:51:25.465Z,73.10
2022-08-26T22:54:10.740Z,72.85
2022-08-26T22:56:56.174Z,73.24
2022-08-26T22:59:41.437Z,72.92
2022-08-26T23:02:27.898Z,72.78
2022-08-26T23:05:13.204Z,72.88
2022-08-26T23:07:58.835Z,73.03
2022-08-26T23:10:46.547Z,73.08
2022-08-26T23:13:31.983Z,72.60
2022-08-26T23:16:17.325Z,72.64
2022-08-26T23:19:04.723Z,72.90
2022-08-26T23:21:50.691Z,73.00
2022-08-26T23:24:36.157Z,72.93
2022-08-26T23:27:21.471Z,72.81
2022-08-26T23:30:12.209Z,72.65
2022-08-26T23:32:58.522Z,72.65
2022-08-26T23:35:44.240Z,72.88
2022-08-26T23:38:29.405Z,72.74
2022-08-26T23:41:15.359Z,72.71
2022-08-26T23:44:05.066Z,72.90
2022-08-26T23:46:50.590Z,72.46
2022-08-26T23:49:36.838Z,72.98
2022-08-26T23:52:40.720Z,72.93
2022-08-26T23:55:26.017Z,72.97
2022-08-26T23:58:11.319Z,72.78
